• Join FlightAware (Why Join?)
  • Login
  • US Flag 
03:31PM EDT


 

Airport Tracker/Info


-or-


 

Live Flight TrackerFlight Track Log ✈ ELT222 ✈ 26-Apr-2013 ✈ KDLH - KFCM

Flight Track Log - Related Links

Times and Time Zones

All times are in EDT time to prevent confusion due to time zone crossing. See the ELT222 flight status page for this flight to view local times or setup timezone preferences in your user account.

Time Position Orientation Groundspeed Altitude Reporting Facility
EDT Latitude Longitude Course Direction KTS MPH feet Rate Location/Type
05:40PM 46.7433 -92.3889 222° Southwest 250 288 10,200  Level Minneapolis Center
05:41PM 46.6872 -92.4653 223° Southwest 267 307 13,400 3,000 Climbing Minneapolis Center
05:42PM 46.6247 -92.5475 222° Southwest 291 335 16,400 2,220 Climbing Minneapolis Center
05:43PM 46.5567 -92.6403 223° Southwest 319 367 18,000 720 Climbing Minneapolis Center
05:44PM 46.4897 -92.6768 225° Southwest  Level FlightAware Approximate
05:44PM 46.4500 -92.7519 216° Southwest 389 448 18,000  Level Minneapolis Center
05:45PM 46.3544 -92.8392 212° Southwest 404 465 18,000  Level Minneapolis Center
05:46PM 46.2583 -92.9292 213° Southwest 410 472 18,000  Level Minneapolis Center
05:47PM 46.1558 -93.0228 212° Southwest 403 464 18,000  Level Minneapolis Center
05:48PM 46.0833 -93.0872 212° Southwest 392 451 18,000 -60 Level Minneapolis Center
05:49PM 45.9747 -93.1844 212° Southwest 386 444 17,900 -1,020 Descending Minneapolis Center
05:50PM 45.8853 -93.2658 212° Southwest 384 442 15,900 -1,920 Descending Minneapolis Center
05:51PM 45.8042 -93.3425 213° Southwest 357 411 14,000 -1,920 Descending Minneapolis Center
05:53PM 45.7133 -93.4239 212° Southwest 326 375 12,000 -1,800 Descending Minneapolis Center
05:54PM 45.6408 -93.4889 212° Southwest 311 358 10,300 -1,380 Descending Minneapolis Center
05:55PM 45.5881 -93.5356 212° Southwest 288 331 9,200 -1,320 Descending Minneapolis Center
05:56PM 45.5194 -93.5725 201° Southwest 281 323 7,700 -1,620 Descending Minneapolis Center
05:57PM 45.4333 -93.5264 159° South 276 318 5,900 -1,560 Descending Minneapolis Center
05:58PM 45.3633 -93.5019 166° South 264 304 4,500 -960 Descending Minneapolis Center
05:59PM 45.2783 -93.5314 194° South 263 303 4,000 -600 Descending Minneapolis Center
06:00PM 45.2061 -93.5439 187° South 265 305 3,300 -540 Descending Minneapolis Center
06:01PM 45.1350 -93.5275 171° South 259 298 3,000 -420 Descending Minneapolis Center
06:02PM 45.0639 -93.5081 169° South 262 302 2,500 -300 Descending Minneapolis Center
06:03PM 44.9983 -93.4731 159° South 254 292 2,500  Level Minneapolis Center
06:04PM 44.9358 -93.4422 161° South 242 278 2,500 -60 Level Minneapolis Center
06:05PM 44.8708 -93.4089 160° South 202 232 2,400 -420 Descending Minneapolis Center
06:06PM 44.8308 -93.4008 172° South 147 169 1,700 -660 Descending Minneapolis Center
06:07PM 44.8253 -93.4417 259° West 120 138 1,100 -600 Descending Minneapolis Center
06:09PM 44.8167 -93.4500 270° West  Level FlightAware Approximate